Antonino, KS

12:08 AM CDT on September 24, 2014 (GMT -0500)
Rural Ellis Co. | Change Station
CLOSE
Current Station
Personal Weather Station
Location: Hays, KS
Elevation: 2077 ft
Nearby Weather Stations

Elev 2077 ft 38.81 °N, 99.37 °W | Updated 9 minutes ago

Partly Cloudy
Partly Cloudy
67.1 °F
Feels Like 67.1 °F
N
5.8
Wind Variable Wind from South

Today
High -- | Low -- °F
--% Chance of Precip.
Yesterday
High -- | Low -- °F
Precip. -- in
7:27 AM 7:31 PM
Waning Crescent, 0% visible
Pressure 30.15 in
Visibility 10.0 miles
Clouds Clear
Dew Point 63 °F
Humidity 86%
Rainfall 1.53 in
Snow Depth Not available.
UV 0 out of 12
Pollen 5.10 out of 12
Air Quality Not available.
Flu Activity Not available.
METAR KHYS 230235Z 15011KT 10SM CLR 20/07 A3015 RMK AO1

More Conditions Fewer Conditions

Pressure 30.15 in
Visibility 10.0 miles
Clouds Clear
Dew Point 63 °F
Humidity 86%
Rainfall 1.53 in
Snow Depth Not available.
UV 0 out of 12
Pollen 5.10 out of 12
Air Quality Not available.
Flu Activity Not available.
METAR KHYS 230235Z 15011KT 10SM CLR 20/07 A3015 RMK AO1

More Conditions Fewer Conditions

10-Day Weather Forecast

Almanac

Astronomy

Sep. 24, 2014 Rise Set
Actual Time 7:27 AM CDT 7:31 PM CDT
Civil Twilight 7:00 AM CDT 7:57 PM CDT
Nautical Twilight 6:29 AM CDT 8:28 PM CDT
Astronomical Twilight 5:58 AM CDT 9:00 PM CDT
Moon 7:48 AM CDT 7:43 PM CDT
Length of Visible Light 12h 57m
Length of Day
12h 04m
Tomorrow will be 2m 30s shorter.
Waning Crescent, 0% of the Moon is Illuminated
Today
Waning Crescent
Sep 24
New
Oct 1
First Quarter
Oct 8
Full
Oct 15
Last Quarter

Today's Extremes

State Highs State Lows

Community

WunderPhotos

Upload Photos

1,755,891 photos uploaded!

WunderBlogs® & News

Nearby

Snow Depth

Station Depth Elevation
No new snow has been reported.

Earthquake Activity

City Distance Mag. Time & Date
No recent earthquake activity has been reported nearby.
Minimum magnitude displayed is 2.5.

Coastal Water Temperatures

Place Temperature
No Stations Reporting

Nearby Weather Stations